KDUG/DUG METAR and TAF weather

Enter ICAO airport designator
Station Type Date Time Source
KDUG METAR 2019/06/24 22:56 UTC NOAA

KDUG 242256Z AUTO VRB03KT 10SM CLR 34/M07 A2993 RMK AO2 SLP067 T03391072


Station Type Date Time Source
KDUG Decoded METAR 2019/06/24 22:56 UTC NOAA

BISBEE DOUGLAS INTERNATIONAL AIRPORT , AZ, United States (KDUG) 31-28N 109-36W
Jun 24, 2019 - 06:56 PM EDT / 2019.06.24 2256 UTC
Wind: Variable at 3 MPH (3 KT):0
Visibility: 10 mile(s):0
Sky conditions: clear
Temperature: 93.0 F (33.9 C)
Dew Point: 19.0 F (-7.2 C)
Relative Humidity: 6%
Pressure (altimeter): 29.93 in. Hg (1013 hPa)
ob: KDUG 242256Z AUTO VRB03KT 10SM CLR 34/M07 A2993 RMK AO2 SLP067 T03391072
cycle: 23

Station Type Date Time Source
KDUG TAF 2019/06/24 18:22 UTC NOAA

TAF KDUG 241720Z 2418/2518 19006KT P6SM SKC
FM242000 21008G18KT P6SM SKC
FM250100 27010KT P6SM SKC
FM250400 VRB04KT P6SM SKC

Example: see airport list